sensor_id;sensor_type;location;lat;lon;timestamp;P1;durP1;ratioP1;P2;durP2;ratioP2
56927;SDS011;60850;52.502;13.426;2023-01-13T00:00:01;1.45;;;0.80;;
56927;SDS011;60850;52.502;13.426;2023-01-13T00:02:29;2.22;;;1.00;;
56927;SDS011;60850;52.502;13.426;2023-01-13T00:04:58;0.98;;;0.60;;
56927;SDS011;60850;52.502;13.426;2023-01-13T00:07:25;0.70;;;0.68;;
56927;SDS011;60850;52.502;13.426;2023-01-13T00:09:52;1.40;;;0.40;;
56927;SDS011;60850;52.502;13.426;2023-01-13T00:12:18;2.65;;;0.80;;
56927;SDS011;60850;52.502;13.426;2023-01-13T00:14:47;1.17;;;0.57;;
56927;SDS011;60850;52.502;13.426;2023-01-13T00:17:14;1.85;;;0.80;;
56927;SDS011;60850;52.502;13.426;2023-01-13T00:19:41;1.40;;;0.65;;
56927;SDS011;60850;52.502;13.426;2023-01-13T00:22:08;2.33;;;1.00;;
56927;SDS011;60850;52.502;13.426;2023-01-13T00:24:35;1.50;;;0.70;;
56927;SDS011;60850;52.502;13.426;2023-01-13T00:27:02;1.23;;;0.52;;
56927;SDS011;60850;52.502;13.426;2023-01-13T00:29:29;1.10;;;0.60;;
56927;SDS011;60850;52.502;13.426;2023-01-13T00:31:57;0.90;;;0.60;;
56927;SDS011;60850;52.502;13.426;2023-01-13T00:34:24;0.77;;;0.45;;
56927;SDS011;60850;52.502;13.426;2023-01-13T00:36:51;2.20;;;0.60;;
56927;SDS011;60850;52.502;13.426;2023-01-13T00:39:18;1.73;;;0.70;;
56927;SDS011;60850;52.502;13.426;2023-01-13T00:41:45;1.02;;;0.60;;
56927;SDS011;60850;52.502;13.426;2023-01-13T00:44:29;4.15;;;0.63;;
56927;SDS011;60850;52.502;13.426;2023-01-13T00:46:57;1.55;;;0.63;;
56927;SDS011;60850;52.502;13.426;2023-01-13T00:49:25;1.17;;;0.60;;
56927;SDS011;60850;52.502;13.426;2023-01-13T00:51:52;1.75;;;0.50;;
56927;SDS011;60850;52.502;13.426;2023-01-13T00:54:19;1.23;;;0.50;;
56927;SDS011;60850;52.502;13.426;2023-01-13T00:56:46;2.28;;;0.70;;
56927;SDS011;60850;52.502;13.426;2023-01-13T00:59:13;1.55;;;0.57;;
56927;SDS011;60850;52.502;13.426;2023-01-13T01:01:40;2.33;;;0.90;;
56927;SDS011;60850;52.502;13.426;2023-01-13T01:04:08;1.17;;;0.60;;
56927;SDS011;60850;52.502;13.426;2023-01-13T01:06:35;2.95;;;0.90;;
56927;SDS011;60850;52.502;13.426;2023-01-13T01:09:02;3.50;;;1.00;;
56927;SDS011;60850;52.502;13.426;2023-01-13T01:11:30;3.70;;;0.50;;
56927;SDS011;60850;52.502;13.426;2023-01-13T01:13:59;1.70;;;0.60;;
56927;SDS011;60850;52.502;13.426;2023-01-13T01:16:28;1.23;;;0.70;;
56927;SDS011;60850;52.502;13.426;2023-01-13T01:18:56;1.52;;;0.70;;
56927;SDS011;60850;52.502;13.426;2023-01-13T01:21:25;1.35;;;0.50;;
56927;SDS011;60850;52.502;13.426;2023-01-13T01:23:53;0.65;;;0.50;;
56927;SDS011;60850;52.502;13.426;2023-01-13T01:26:22;1.27;;;0.60;;
56927;SDS011;60850;52.502;13.426;2023-01-13T01:28:50;0.57;;;0.55;;
56927;SDS011;60850;52.502;13.426;2023-01-13T01:31:19;1.83;;;0.80;;
56927;SDS011;60850;52.502;13.426;2023-01-13T01:33:47;1.02;;;0.77;;
56927;SDS011;60850;52.502;13.426;2023-01-13T01:36:15;0.68;;;0.60;;
56927;SDS011;60850;52.502;13.426;2023-01-13T01:38:45;1.10;;;0.60;;
56927;SDS011;60850;52.502;13.426;2023-01-13T01:41:13;2.58;;;0.73;;
56927;SDS011;60850;52.502;13.426;2023-01-13T01:43:44;1.75;;;0.65;;
56927;SDS011;60850;52.502;13.426;2023-01-13T01:46:27;2.47;;;1.08;;
56927;SDS011;60850;52.502;13.426;2023-01-13T01:48:58;2.97;;;1.58;;
56927;SDS011;60850;52.502;13.426;2023-01-13T01:51:28;2.40;;;0.90;;
56927;SDS011;60850;52.502;13.426;2023-01-13T01:53:58;1.48;;;0.70;;
56927;SDS011;60850;52.502;13.426;2023-01-13T01:56:30;2.85;;;1.27;;
56927;SDS011;60850;52.502;13.426;2023-01-13T01:58:59;0.75;;;0.45;;
56927;SDS011;60850;52.502;13.426;2023-01-13T02:01:26;1.27;;;0.45;;
56927;SDS011;60850;52.502;13.426;2023-01-13T02:03:55;1.67;;;0.40;;
56927;SDS011;60850;52.502;13.426;2023-01-13T02:06:27;1.35;;;0.50;;
56927;SDS011;60850;52.502;13.426;2023-01-13T02:08:55;0.52;;;0.40;;
56927;SDS011;60850;52.502;13.426;2023-01-13T02:11:28;0.52;;;0.38;;
56927;SDS011;60850;52.502;13.426;2023-01-13T02:14:13;0.38;;;0.30;;
56927;SDS011;60850;52.502;13.426;2023-01-13T02:16:42;1.17;;;0.30;;
56927;SDS011;60850;52.502;13.426;2023-01-13T02:19:19;0.95;;;0.60;;
56927;SDS011;60850;52.502;13.426;2023-01-13T02:22:17;0.90;;;0.50;;
56927;SDS011;60850;52.502;13.426;2023-01-13T02:25:03;1.30;;;0.77;;
56927;SDS011;60850;52.502;13.426;2023-01-13T02:27:58;0.68;;;0.30;;
56927;SDS011;60850;52.502;13.426;2023-01-13T02:30:43;1.00;;;0.43;;
56927;SDS011;60850;52.502;13.426;2023-01-13T02:33:32;0.57;;;0.50;;
56927;SDS011;60850;52.502;13.426;2023-01-13T02:36:05;1.67;;;0.40;;
56927;SDS011;60850;52.502;13.426;2023-01-13T02:38:44;0.63;;;0.30;;
56927;SDS011;60850;52.502;13.426;2023-01-13T02:41:17;1.55;;;0.40;;
56927;SDS011;60850;52.502;13.426;2023-01-13T02:44:08;0.95;;;0.60;;
56927;SDS011;60850;52.502;13.426;2023-01-13T02:46:42;0.43;;;0.35;;
56927;SDS011;60850;52.502;13.426;2023-01-13T02:49:15;1.35;;;0.30;;
56927;SDS011;60850;52.502;13.426;2023-01-13T02:51:49;0.90;;;0.40;;
56927;SDS011;60850;52.502;13.426;2023-01-13T02:54:19;0.68;;;0.30;;
56927;SDS011;60850;52.502;13.426;2023-01-13T02:56:49;0.50;;;0.30;;
56927;SDS011;60850;52.502;13.426;2023-01-13T02:59:20;1.10;;;0.32;;
56927;SDS011;60850;52.502;13.426;2023-01-13T03:01:52;0.30;;;0.30;;
56927;SDS011;60850;52.502;13.426;2023-01-13T03:07:21;1.50;;;0.35;;
56927;SDS011;60850;52.502;13.426;2023-01-13T03:10:00;2.03;;;0.40;;
56927;SDS011;60850;52.502;13.426;2023-01-13T03:12:36;0.73;;;0.30;;
56927;SDS011;60850;52.502;13.426;2023-01-13T03:15:11;1.30;;;0.40;;
56927;SDS011;60850;52.502;13.426;2023-01-13T03:17:45;0.40;;;0.40;;
56927;SDS011;60850;52.502;13.426;2023-01-13T03:20:21;0.70;;;0.30;;
56927;SDS011;60850;52.502;13.426;2023-01-13T03:22:53;1.00;;;0.30;;
56927;SDS011;60850;52.502;13.426;2023-01-13T03:25:26;0.85;;;0.30;;
56927;SDS011;60850;52.502;13.426;2023-01-13T03:27:57;0.57;;;0.40;;
56927;SDS011;60850;52.502;13.426;2023-01-13T03:30:29;0.73;;;0.30;;
56927;SDS011;60850;52.502;13.426;2023-01-13T03:33:05;0.57;;;0.25;;
56927;SDS011;60850;52.502;13.426;2023-01-13T03:35:37;1.23;;;0.40;;
56927;SDS011;60850;52.502;13.426;2023-01-13T03:38:08;0.82;;;0.40;;
56927;SDS011;60850;52.502;13.426;2023-01-13T03:40:39;1.80;;;0.30;;
56927;SDS011;60850;52.502;13.426;2023-01-13T03:43:12;0.35;;;0.30;;
56927;SDS011;60850;52.502;13.426;2023-01-13T03:46:01;0.45;;;0.30;;
56927;SDS011;60850;52.502;13.426;2023-01-13T03:48:34;1.80;;;0.40;;
56927;SDS011;60850;52.502;13.426;2023-01-13T03:51:05;1.25;;;0.32;;
56927;SDS011;60850;52.502;13.426;2023-01-13T03:53:37;0.75;;;0.30;;
56927;SDS011;60850;52.502;13.426;2023-01-13T03:56:09;0.40;;;0.28;;
56927;SDS011;60850;52.502;13.426;2023-01-13T03:58:41;0.22;;;0.20;;
56927;SDS011;60850;52.502;13.426;2023-01-13T04:01:13;0.22;;;0.20;;
56927;SDS011;60850;52.502;13.426;2023-01-13T04:03:46;0.63;;;0.30;;
56927;SDS011;60850;52.502;13.426;2023-01-13T04:06:24;0.80;;;0.30;;
56927;SDS011;60850;52.502;13.426;2023-01-13T04:08:59;0.28;;;0.28;;
56927;SDS011;60850;52.502;13.426;2023-01-13T04:11:31;0.75;;;0.30;;
56927;SDS011;60850;52.502;13.426;2023-01-13T04:14:03;0.30;;;0.30;;
56927;SDS011;60850;52.502;13.426;2023-01-13T04:16:31;0.38;;;0.35;;
56927;SDS011;60850;52.502;13.426;2023-01-13T04:19:00;0.40;;;0.20;;
56927;SDS011;60850;52.502;13.426;2023-01-13T04:21:26;0.20;;;0.20;;
56927;SDS011;60850;52.502;13.426;2023-01-13T04:23:55;0.60;;;0.30;;
56927;SDS011;60850;52.502;13.426;2023-01-13T04:26:21;1.15;;;0.60;;
56927;SDS011;60850;52.502;13.426;2023-01-13T04:28:48;0.70;;;0.50;;
56927;SDS011;60850;52.502;13.426;2023-01-13T04:31:16;0.45;;;0.30;;
56927;SDS011;60850;52.502;13.426;2023-01-13T04:33:43;0.43;;;0.30;;
56927;SDS011;60850;52.502;13.426;2023-01-13T04:36:11;0.20;;;0.20;;
56927;SDS011;60850;52.502;13.426;2023-01-13T04:38:38;0.93;;;0.25;;
56927;SDS011;60850;52.502;13.426;2023-01-13T04:41:05;0.70;;;0.30;;
56927;SDS011;60850;52.502;13.426;2023-01-13T04:43:32;1.90;;;0.25;;
56927;SDS011;60850;52.502;13.426;2023-01-13T04:45:59;1.65;;;0.32;;
56927;SDS011;60850;52.502;13.426;2023-01-13T04:48:26;0.30;;;0.22;;
56927;SDS011;60850;52.502;13.426;2023-01-13T04:50:53;0.43;;;0.30;;
56927;SDS011;60850;52.502;13.426;2023-01-13T04:53:21;0.52;;;0.30;;
56927;SDS011;60850;52.502;13.426;2023-01-13T04:55:48;1.15;;;0.30;;
56927;SDS011;60850;52.502;13.426;2023-01-13T04:58:15;1.95;;;0.30;;
56927;SDS011;60850;52.502;13.426;2023-01-13T05:00:42;0.35;;;0.20;;
56927;SDS011;60850;52.502;13.426;2023-01-13T05:03:09;0.85;;;0.30;;
56927;SDS011;60850;52.502;13.426;2023-01-13T05:05:36;0.43;;;0.30;;
56927;SDS011;60850;52.502;13.426;2023-01-13T05:08:03;0.98;;;0.20;;
56927;SDS011;60850;52.502;13.426;2023-01-13T05:10:32;2.28;;;0.47;;
56927;SDS011;60850;52.502;13.426;2023-01-13T05:12:59;8.80;;;4.57;;
56927;SDS011;60850;52.502;13.426;2023-01-13T05:15:43;0.77;;;0.52;;
56927;SDS011;60850;52.502;13.426;2023-01-13T05:18:42;0.38;;;0.35;;
56927;SDS011;60850;52.502;13.426;2023-01-13T05:21:10;1.05;;;0.32;;
56927;SDS011;60850;52.502;13.426;2023-01-13T05:23:58;0.52;;;0.35;;
56927;SDS011;60850;52.502;13.426;2023-01-13T05:26:43;0.38;;;0.30;;
56927;SDS011;60850;52.502;13.426;2023-01-13T05:29:10;1.38;;;0.30;;
56927;SDS011;60850;52.502;13.426;2023-01-13T05:31:37;1.48;;;0.30;;
56927;SDS011;60850;52.502;13.426;2023-01-13T05:34:04;1.55;;;0.47;;
56927;SDS011;60850;52.502;13.426;2023-01-13T05:36:31;0.73;;;0.50;;
56927;SDS011;60850;52.502;13.426;2023-01-13T05:38:58;0.55;;;0.47;;
56927;SDS011;60850;52.502;13.426;2023-01-13T05:41:25;1.20;;;0.40;;
56927;SDS011;60850;52.502;13.426;2023-01-13T05:44:11;0.35;;;0.20;;
56927;SDS011;60850;52.502;13.426;2023-01-13T05:46:37;0.45;;;0.30;;
56927;SDS011;60850;52.502;13.426;2023-01-13T05:49:06;0.80;;;0.30;;
56927;SDS011;60850;52.502;13.426;2023-01-13T05:51:33;0.70;;;0.30;;
56927;SDS011;60850;52.502;13.426;2023-01-13T05:54:00;0.65;;;0.40;;
56927;SDS011;60850;52.502;13.426;2023-01-13T05:56:26;0.30;;;0.30;;
56927;SDS011;60850;52.502;13.426;2023-01-13T05:58:53;2.00;;;0.70;;
56927;SDS011;60850;52.502;13.426;2023-01-13T06:01:21;0.68;;;0.28;;
56927;SDS011;60850;52.502;13.426;2023-01-13T06:03:48;0.60;;;0.38;;
56927;SDS011;60850;52.502;13.426;2023-01-13T06:06:15;0.40;;;0.30;;
56927;SDS011;60850;52.502;13.426;2023-01-13T06:08:42;1.48;;;0.47;;
56927;SDS011;60850;52.502;13.426;2023-01-13T06:11:09;0.70;;;0.47;;
56927;SDS011;60850;52.502;13.426;2023-01-13T06:13:36;1.83;;;0.47;;
56927;SDS011;60850;52.502;13.426;2023-01-13T06:16:03;2.15;;;0.50;;
56927;SDS011;60850;52.502;13.426;2023-01-13T06:18:32;1.48;;;0.55;;
56927;SDS011;60850;52.502;13.426;2023-01-13T06:20:59;1.40;;;0.60;;
56927;SDS011;60850;52.502;13.426;2023-01-13T06:23:26;1.55;;;0.60;;
56927;SDS011;60850;52.502;13.426;2023-01-13T06:25:57;1.73;;;0.70;;
56927;SDS011;60850;52.502;13.426;2023-01-13T06:30:55;1.13;;;0.60;;
56927;SDS011;60850;52.502;13.426;2023-01-13T06:33:26;1.80;;;0.80;;
56927;SDS011;60850;52.502;13.426;2023-01-13T06:35:57;1.85;;;0.73;;
56927;SDS011;60850;52.502;13.426;2023-01-13T06:38:27;2.10;;;0.50;;
56927;SDS011;60850;52.502;13.426;2023-01-13T06:40:58;0.68;;;0.50;;
56927;SDS011;60850;52.502;13.426;2023-01-13T06:43:25;1.88;;;0.75;;
56927;SDS011;60850;52.502;13.426;2023-01-13T06:45:52;1.95;;;0.73;;
56927;SDS011;60850;52.502;13.426;2023-01-13T06:48:21;0.73;;;0.50;;
56927;SDS011;60850;52.502;13.426;2023-01-13T06:50:49;1.23;;;0.50;;
56927;SDS011;60850;52.502;13.426;2023-01-13T06:53:17;1.77;;;0.80;;
56927;SDS011;60850;52.502;13.426;2023-01-13T06:55:44;1.38;;;0.40;;
56927;SDS011;60850;52.502;13.426;2023-01-13T06:58:11;0.93;;;0.60;;
56927;SDS011;60850;52.502;13.426;2023-01-13T07:00:38;3.10;;;0.90;;
56927;SDS011;60850;52.502;13.426;2023-01-13T07:03:06;2.55;;;0.65;;
56927;SDS011;60850;52.502;13.426;2023-01-13T07:05:34;1.67;;;0.75;;
56927;SDS011;60850;52.502;13.426;2023-01-13T07:08:02;1.35;;;0.60;;
56927;SDS011;60850;52.502;13.426;2023-01-13T07:10:30;1.52;;;0.40;;
56927;SDS011;60850;52.502;13.426;2023-01-13T07:12:59;1.55;;;0.57;;
56927;SDS011;60850;52.502;13.426;2023-01-13T07:15:51;1.15;;;0.50;;
56927;SDS011;60850;52.502;13.426;2023-01-13T07:18:19;2.40;;;0.70;;
56927;SDS011;60850;52.502;13.426;2023-01-13T07:20:50;2.10;;;0.60;;
56927;SDS011;60850;52.502;13.426;2023-01-13T07:23:18;0.85;;;0.70;;
56927;SDS011;60850;52.502;13.426;2023-01-13T07:25:46;1.48;;;0.60;;
56927;SDS011;60850;52.502;13.426;2023-01-13T07:28:13;1.88;;;0.60;;
56927;SDS011;60850;52.502;13.426;2023-01-13T07:30:40;1.42;;;0.60;;
56927;SDS011;60850;52.502;13.426;2023-01-13T07:33:07;3.30;;;0.70;;
56927;SDS011;60850;52.502;13.426;2023-01-13T07:35:34;2.88;;;1.35;;
56927;SDS011;60850;52.502;13.426;2023-01-13T07:38:01;3.33;;;1.00;;
56927;SDS011;60850;52.502;13.426;2023-01-13T07:40:28;3.53;;;1.05;;
56927;SDS011;60850;52.502;13.426;2023-01-13T07:42:56;2.10;;;0.98;;
56927;SDS011;60850;52.502;13.426;2023-01-13T07:45:41;1.13;;;0.60;;
56927;SDS011;60850;52.502;13.426;2023-01-13T07:48:08;1.50;;;0.50;;
56927;SDS011;60850;52.502;13.426;2023-01-13T07:50:35;1.02;;;0.60;;
56927;SDS011;60850;52.502;13.426;2023-01-13T07:53:02;1.33;;;0.73;;
56927;SDS011;60850;52.502;13.426;2023-01-13T07:55:29;1.83;;;0.93;;
56927;SDS011;60850;52.502;13.426;2023-01-13T07:57:57;1.33;;;0.80;;
56927;SDS011;60850;52.502;13.426;2023-01-13T08:00:24;2.28;;;0.75;;
56927;SDS011;60850;52.502;13.426;2023-01-13T08:02:51;1.98;;;1.00;;
56927;SDS011;60850;52.502;13.426;2023-01-13T08:05:18;5.68;;;1.30;;
56927;SDS011;60850;52.502;13.426;2023-01-13T08:07:45;2.53;;;0.93;;
56927;SDS011;60850;52.502;13.426;2023-01-13T08:10:12;3.25;;;1.27;;
56927;SDS011;60850;52.502;13.426;2023-01-13T08:12:39;1.67;;;1.00;;
56927;SDS011;60850;52.502;13.426;2023-01-13T08:15:24;5.03;;;0.82;;
56927;SDS011;60850;52.502;13.426;2023-01-13T08:17:51;1.48;;;0.73;;
56927;SDS011;60850;52.502;13.426;2023-01-13T08:20:18;3.13;;;0.70;;
56927;SDS011;60850;52.502;13.426;2023-01-13T08:22:45;1.73;;;0.77;;
56927;SDS011;60850;52.502;13.426;2023-01-13T08:25:12;1.58;;;0.55;;
56927;SDS011;60850;52.502;13.426;2023-01-13T08:27:39;1.48;;;0.50;;
56927;SDS011;60850;52.502;13.426;2023-01-13T08:30:06;1.00;;;0.47;;
56927;SDS011;60850;52.502;13.426;2023-01-13T08:32:35;1.25;;;0.60;;
56927;SDS011;60850;52.502;13.426;2023-01-13T08:35:02;0.32;;;0.30;;
56927;SDS011;60850;52.502;13.426;2023-01-13T08:37:29;2.20;;;0.40;;
56927;SDS011;60850;52.502;13.426;2023-01-13T08:39:56;1.02;;;0.40;;
56927;SDS011;60850;52.502;13.426;2023-01-13T08:42:23;0.90;;;0.43;;
56927;SDS011;60850;52.502;13.426;2023-01-13T08:44:51;1.35;;;0.40;;
56927;SDS011;60850;52.502;13.426;2023-01-13T08:47:19;1.45;;;0.40;;
56927;SDS011;60850;52.502;13.426;2023-01-13T08:49:47;1.13;;;0.68;;
56927;SDS011;60850;52.502;13.426;2023-01-13T08:52:14;0.82;;;0.40;;
56927;SDS011;60850;52.502;13.426;2023-01-13T08:54:42;0.40;;;0.40;;
56927;SDS011;60850;52.502;13.426;2023-01-13T08:57:09;1.20;;;0.70;;
56927;SDS011;60850;52.502;13.426;2023-01-13T08:59:36;1.33;;;0.70;;
56927;SDS011;60850;52.502;13.426;2023-01-13T09:02:05;2.83;;;1.10;;
56927;SDS011;60850;52.502;13.426;2023-01-13T09:04:38;2.08;;;0.95;;
56927;SDS011;60850;52.502;13.426;2023-01-13T09:07:06;2.60;;;0.80;;
56927;SDS011;60850;52.502;13.426;2023-01-13T09:09:33;1.35;;;0.47;;
56927;SDS011;60850;52.502;13.426;2023-01-13T09:12:00;2.13;;;0.57;;
56927;SDS011;60850;52.502;13.426;2023-01-13T09:14:45;9.88;;;2.45;;
56927;SDS011;60850;52.502;13.426;2023-01-13T09:17:13;1.45;;;0.57;;
56927;SDS011;60850;52.502;13.426;2023-01-13T09:19:40;1.17;;;0.52;;
56927;SDS011;60850;52.502;13.426;2023-01-13T09:22:09;4.10;;;1.05;;
56927;SDS011;60850;52.502;13.426;2023-01-13T09:24:39;2.25;;;1.02;;
56927;SDS011;60850;52.502;13.426;2023-01-13T09:27:07;1.88;;;0.80;;
56927;SDS011;60850;52.502;13.426;2023-01-13T09:29:34;2.70;;;1.00;;
56927;SDS011;60850;52.502;13.426;2023-01-13T09:32:01;0.80;;;0.57;;
56927;SDS011;60850;52.502;13.426;2023-01-13T09:34:28;1.83;;;0.77;;
56927;SDS011;60850;52.502;13.426;2023-01-13T09:37:14;2.78;;;0.60;;
56927;SDS011;60850;52.502;13.426;2023-01-13T09:39:41;2.13;;;0.60;;
56927;SDS011;60850;52.502;13.426;2023-01-13T09:42:12;1.05;;;0.60;;
56927;SDS011;60850;52.502;13.426;2023-01-13T09:45:01;1.50;;;0.70;;
56927;SDS011;60850;52.502;13.426;2023-01-13T09:47:34;1.20;;;0.50;;
56927;SDS011;60850;52.502;13.426;2023-01-13T09:50:14;2.63;;;0.80;;
56927;SDS011;60850;52.502;13.426;2023-01-13T09:52:48;1.15;;;0.68;;
56927;SDS011;60850;52.502;13.426;2023-01-13T09:55:16;2.25;;;0.90;;
56927;SDS011;60850;52.502;13.426;2023-01-13T09:57:45;1.25;;;0.65;;
56927;SDS011;60850;52.502;13.426;2023-01-13T10:00:13;2.30;;;0.70;;
56927;SDS011;60850;52.502;13.426;2023-01-13T10:05:26;4.60;;;0.60;;
56927;SDS011;60850;52.502;13.426;2023-01-13T10:08:02;3.45;;;0.82;;
56927;SDS011;60850;52.502;13.426;2023-01-13T10:10:37;0.93;;;0.70;;
56927;SDS011;60850;52.502;13.426;2023-01-13T10:13:15;2.08;;;1.10;;
56927;SDS011;60850;52.502;13.426;2023-01-13T10:15:54;2.40;;;0.70;;
56927;SDS011;60850;52.502;13.426;2023-01-13T10:18:31;3.75;;;0.70;;
56927;SDS011;60850;52.502;13.426;2023-01-13T10:21:12;1.20;;;0.40;;
56927;SDS011;60850;52.502;13.426;2023-01-13T10:23:57;1.25;;;0.40;;
56927;SDS011;60850;52.502;13.426;2023-01-13T10:26:34;1.42;;;0.68;;
56927;SDS011;60850;52.502;13.426;2023-01-13T10:29:17;2.38;;;0.95;;
56927;SDS011;60850;52.502;13.426;2023-01-13T10:31:47;1.88;;;0.47;;
56927;SDS011;60850;52.502;13.426;2023-01-13T10:34:14;3.50;;;0.55;;
56927;SDS011;60850;52.502;13.426;2023-01-13T10:36:45;1.08;;;0.50;;
56927;SDS011;60850;52.502;13.426;2023-01-13T10:39:23;1.80;;;0.50;;
56927;SDS011;60850;52.502;13.426;2023-01-13T10:41:59;3.25;;;0.70;;
56927;SDS011;60850;52.502;13.426;2023-01-13T10:44:27;4.40;;;0.40;;
56927;SDS011;60850;52.502;13.426;2023-01-13T10:46:54;1.10;;;0.40;;
56927;SDS011;60850;52.502;13.426;2023-01-13T10:49:30;0.95;;;0.60;;
56927;SDS011;60850;52.502;13.426;2023-01-13T10:51:58;0.82;;;0.40;;
56927;SDS011;60850;52.502;13.426;2023-01-13T10:54:28;1.80;;;0.80;;
56927;SDS011;60850;52.502;13.426;2023-01-13T10:57:11;1.08;;;0.70;;
56927;SDS011;60850;52.502;13.426;2023-01-13T10:59:40;1.92;;;0.50;;
56927;SDS011;60850;52.502;13.426;2023-01-13T11:02:15;2.78;;;0.90;;
56927;SDS011;60850;52.502;13.426;2023-01-13T11:04:59;2.75;;;1.00;;
56927;SDS011;60850;52.502;13.426;2023-01-13T11:07:29;2.85;;;0.90;;
56927;SDS011;60850;52.502;13.426;2023-01-13T11:10:04;2.13;;;1.15;;
56927;SDS011;60850;52.502;13.426;2023-01-13T11:12:43;3.83;;;0.98;;
56927;SDS011;60850;52.502;13.426;2023-01-13T11:15:17;1.42;;;0.68;;
56927;SDS011;60850;52.502;13.426;2023-01-13T11:17:47;5.10;;;1.00;;
56927;SDS011;60850;52.502;13.426;2023-01-13T11:20:27;1.75;;;0.55;;
56927;SDS011;60850;52.502;13.426;2023-01-13T11:23:02;1.98;;;0.60;;
56927;SDS011;60850;52.502;13.426;2023-01-13T11:25:39;1.05;;;0.50;;
56927;SDS011;60850;52.502;13.426;2023-01-13T11:31:09;2.60;;;0.68;;
56927;SDS011;60850;52.502;13.426;2023-01-13T11:33:44;2.17;;;0.50;;
56927;SDS011;60850;52.502;13.426;2023-01-13T11:36:16;2.40;;;0.50;;
56927;SDS011;60850;52.502;13.426;2023-01-13T11:38:48;2.30;;;0.40;;
56927;SDS011;60850;52.502;13.426;2023-01-13T11:41:32;2.38;;;0.40;;
56927;SDS011;60850;52.502;13.426;2023-01-13T11:44:16;1.00;;;0.60;;
56927;SDS011;60850;52.502;13.426;2023-01-13T11:46:47;1.52;;;0.73;;
56927;SDS011;60850;52.502;13.426;2023-01-13T11:49:20;3.75;;;1.20;;
56927;SDS011;60850;52.502;13.426;2023-01-13T11:51:51;3.60;;;1.35;;
56927;SDS011;60850;52.502;13.426;2023-01-13T11:57:36;4.20;;;1.15;;
56927;SDS011;60850;52.502;13.426;2023-01-13T12:00:20;4.00;;;1.08;;
56927;SDS011;60850;52.502;13.426;2023-01-13T12:03:01;5.32;;;1.10;;
56927;SDS011;60850;52.502;13.426;2023-01-13T12:05:45;4.85;;;1.10;;
56927;SDS011;60850;52.502;13.426;2023-01-13T12:08:29;3.60;;;0.90;;
56927;SDS011;60850;52.502;13.426;2023-01-13T12:11:20;3.80;;;1.00;;
56927;SDS011;60850;52.502;13.426;2023-01-13T12:13:59;3.53;;;0.90;;
56927;SDS011;60850;52.502;13.426;2023-01-13T12:16:41;4.10;;;1.00;;
56927;SDS011;60850;52.502;13.426;2023-01-13T12:19:18;4.80;;;1.05;;
56927;SDS011;60850;52.502;13.426;2023-01-13T12:24:43;4.05;;;1.10;;
56927;SDS011;60850;52.502;13.426;2023-01-13T12:27:17;6.40;;;1.50;;
56927;SDS011;60850;52.502;13.426;2023-01-13T12:29:50;6.95;;;1.55;;
56927;SDS011;60850;52.502;13.426;2023-01-13T12:32:24;6.85;;;1.85;;
56927;SDS011;60850;52.502;13.426;2023-01-13T12:35:01;5.25;;;1.40;;
56927;SDS011;60850;52.502;13.426;2023-01-13T12:37:38;6.53;;;1.60;;
56927;SDS011;60850;52.502;13.426;2023-01-13T12:40:16;5.07;;;1.50;;
56927;SDS011;60850;52.502;13.426;2023-01-13T12:42:47;5.10;;;1.00;;
56927;SDS011;60850;52.502;13.426;2023-01-13T12:45:39;3.85;;;1.23;;
56927;SDS011;60850;52.502;13.426;2023-01-13T12:48:16;3.92;;;1.10;;
56927;SDS011;60850;52.502;13.426;2023-01-13T12:51:20;2.65;;;1.05;;
56927;SDS011;60850;52.502;13.426;2023-01-13T12:53:49;3.22;;;1.00;;
56927;SDS011;60850;52.502;13.426;2023-01-13T12:56:21;4.70;;;1.50;;
56927;SDS011;60850;52.502;13.426;2023-01-13T13:02:30;4.03;;;0.93;;
56927;SDS011;60850;52.502;13.426;2023-01-13T13:05:02;3.20;;;1.83;;
56927;SDS011;60850;52.502;13.426;2023-01-13T13:08:17;6.88;;;1.83;;
56927;SDS011;60850;52.502;13.426;2023-01-13T13:10:55;4.03;;;1.90;;
56927;SDS011;60850;52.502;13.426;2023-01-13T13:13:41;4.43;;;1.20;;
56927;SDS011;60850;52.502;13.426;2023-01-13T13:22:17;4.03;;;1.98;;
56927;SDS011;60850;52.502;13.426;2023-01-13T13:27:45;5.95;;;1.58;;
56927;SDS011;60850;52.502;13.426;2023-01-13T13:30:22;2.53;;;0.90;;
56927;SDS011;60850;52.502;13.426;2023-01-13T13:33:07;7.43;;;0.93;;
56927;SDS011;60850;52.502;13.426;2023-01-13T13:35:52;4.78;;;0.80;;
56927;SDS011;60850;52.502;13.426;2023-01-13T13:38:39;4.38;;;1.27;;
56927;SDS011;60850;52.502;13.426;2023-01-13T13:41:36;3.95;;;1.45;;
56927;SDS011;60850;52.502;13.426;2023-01-13T13:44:25;6.45;;;1.52;;
56927;SDS011;60850;52.502;13.426;2023-01-13T13:47:13;4.90;;;1.50;;
56927;SDS011;60850;52.502;13.426;2023-01-13T13:49:40;6.93;;;1.10;;
56927;SDS011;60850;52.502;13.426;2023-01-13T13:52:16;4.50;;;1.17;;
56927;SDS011;60850;52.502;13.426;2023-01-13T13:54:46;5.22;;;1.15;;
56927;SDS011;60850;52.502;13.426;2023-01-13T13:57:17;6.45;;;1.20;;
56927;SDS011;60850;52.502;13.426;2023-01-13T13:59:46;4.88;;;1.10;;
56927;SDS011;60850;52.502;13.426;2023-01-13T14:02:18;3.92;;;1.00;;
56927;SDS011;60850;52.502;13.426;2023-01-13T14:05:05;3.08;;;0.95;;
56927;SDS011;60850;52.502;13.426;2023-01-13T14:07:43;4.43;;;1.15;;
56927;SDS011;60850;52.502;13.426;2023-01-13T14:10:13;3.88;;;0.85;;
56927;SDS011;60850;52.502;13.426;2023-01-13T14:12:43;7.85;;;1.33;;
56927;SDS011;60850;52.502;13.426;2023-01-13T14:17:57;2.60;;;1.70;;
56927;SDS011;60850;52.502;13.426;2023-01-13T14:20:25;6.88;;;1.75;;
56927;SDS011;60850;52.502;13.426;2023-01-13T14:22:55;1.75;;;1.20;;
56927;SDS011;60850;52.502;13.426;2023-01-13T14:25:26;5.72;;;1.17;;
56927;SDS011;60850;52.502;13.426;2023-01-13T14:27:55;5.78;;;1.00;;
56927;SDS011;60850;52.502;13.426;2023-01-13T14:30:24;5.60;;;1.08;;
56927;SDS011;60850;52.502;13.426;2023-01-13T14:32:52;3.38;;;1.10;;
56927;SDS011;60850;52.502;13.426;2023-01-13T14:35:21;6.55;;;1.55;;
56927;SDS011;60850;52.502;13.426;2023-01-13T14:37:48;6.45;;;1.50;;
56927;SDS011;60850;52.502;13.426;2023-01-13T14:43:13;6.95;;;1.90;;
56927;SDS011;60850;52.502;13.426;2023-01-13T14:45:43;6.88;;;1.83;;
56927;SDS011;60850;52.502;13.426;2023-01-13T14:48:24;7.63;;;2.17;;
56927;SDS011;60850;52.502;13.426;2023-01-13T14:50:58;6.78;;;1.67;;
56927;SDS011;60850;52.502;13.426;2023-01-13T14:53:28;8.02;;;2.03;;
56927;SDS011;60850;52.502;13.426;2023-01-13T15:01:59;4.05;;;1.48;;
56927;SDS011;60850;52.502;13.426;2023-01-13T15:04:31;3.45;;;1.13;;
56927;SDS011;60850;52.502;13.426;2023-01-13T15:07:01;3.83;;;1.80;;
56927;SDS011;60850;52.502;13.426;2023-01-13T15:09:32;3.45;;;1.50;;
56927;SDS011;60850;52.502;13.426;2023-01-13T15:14:57;3.43;;;1.33;;
56927;SDS011;60850;52.502;13.426;2023-01-13T15:17:24;4.43;;;1.27;;
56927;SDS011;60850;52.502;13.426;2023-01-13T15:19:52;4.47;;;1.17;;
56927;SDS011;60850;52.502;13.426;2023-01-13T15:22:18;4.40;;;1.30;;
56927;SDS011;60850;52.502;13.426;2023-01-13T15:24:46;4.60;;;1.20;;
56927;SDS011;60850;52.502;13.426;2023-01-13T15:27:15;4.93;;;1.17;;
56927;SDS011;60850;52.502;13.426;2023-01-13T15:29:47;4.67;;;1.40;;
56927;SDS011;60850;52.502;13.426;2023-01-13T15:32:16;3.63;;;1.05;;
56927;SDS011;60850;52.502;13.426;2023-01-13T15:34:44;6.85;;;1.50;;
56927;SDS011;60850;52.502;13.426;2023-01-13T15:37:12;8.68;;;1.90;;
56927;SDS011;60850;52.502;13.426;2023-01-13T15:39:39;5.47;;;2.05;;
56927;SDS011;60850;52.502;13.426;2023-01-13T15:42:07;8.02;;;1.98;;
56927;SDS011;60850;52.502;13.426;2023-01-13T15:44:56;6.80;;;1.85;;